Time;durP1;ratioP1;P1;durP2;ratioP2;P2;SDS_P1;SDS_P2;PMS_P1;PMS_P2;Temp;Humidity;BMP_temperature;BMP_pressure;BME280_temperature;BME280_humidity;BME280_pressure;Samples;Min_cycle;Max_cycle;Signal;HPM_P1;HPM_P2
2021/06/29 00:02:18;;;;;;;21.85;19.73;;;22.00;95.90;;;;;;5035294;28;20037;-87
2021/06/29 00:04:46;;;;;;;23.25;20.95;;;22.00;95.90;;;;;;5035129;28;20025;-88
2021/06/29 00:07:12;;;;;;;22.83;20.52;;;22.00;95.90;;;;;;5035467;28;20035;-87
2021/06/29 00:09:37;;;;;;;24.02;21.63;;;22.00;95.90;;;;;;5053338;28;20045;-88
2021/06/29 00:12:11;;;;;;;23.90;21.20;;;22.00;95.90;;;;;;5018956;28;20471;-88
2021/06/29 00:14:38;;;;;;;23.50;21.02;;;21.90;95.90;;;;;;5035753;28;20032;-87
2021/06/29 00:17:03;;;;;;;22.90;20.45;;;21.90;95.90;;;;;;5019265;28;20017;-88
2021/06/29 00:19:29;;;;;;;22.83;20.52;;;21.90;96.00;;;;;;5035684;28;20055;-88
2021/06/29 00:21:55;;;;;;;22.65;20.20;;;21.90;96.00;;;;;;5035420;28;20112;-87
2021/06/29 00:24:21;;;;;;;24.05;21.38;;;21.90;95.90;;;;;;5018926;28;20032;-87
2021/06/29 00:26:46;;;;;;;22.88;20.55;;;21.90;96.00;;;;;;5005758;28;20055;-88
2021/06/29 00:29:12;;;;;;;22.17;19.98;;;21.90;96.10;;;;;;5059004;28;20024;-88
2021/06/29 00:31:38;;;;;;;22.80;20.50;;;21.80;96.10;;;;;;5058743;28;20047;-87
2021/06/29 00:34:03;;;;;;;23.30;20.90;;;21.80;96.10;;;;;;5031107;28;20024;-88
2021/06/29 00:37:00;;;;;;;23.10;20.80;;;21.80;96.20;;;;;;5033176;28;20442;-88
2021/06/29 00:39:26;;;;;;;23.75;21.00;;;21.80;96.20;;;;;;5042132;28;20115;-88
2021/06/29 00:41:51;;;;;;;22.00;19.70;;;21.80;96.20;;;;;;5025562;28;20528;-88
2021/06/29 00:44:21;;;;;;;21.58;19.33;;;21.80;96.30;;;;;;5041939;28;20474;-88
2021/06/29 00:46:48;;;;;;;22.90;20.50;;;21.80;96.30;;;;;;5058590;28;20025;-87
2021/06/29 00:49:14;;;;;;;21.85;19.65;;;21.80;96.30;;;;;;5037463;28;20013;-87
2021/06/29 00:55:05;;;;;;;21.83;19.52;;;21.70;96.30;;;;;;5056448;28;20067;-87
2021/06/29 00:57:33;;;;;;;22.83;20.48;;;21.70;96.40;;;;;;5018766;28;20066;-88
2021/06/29 00:59:58;;;;;;;22.33;19.33;;;21.70;96.40;;;;;;5018755;28;20045;-88
2021/06/29 01:02:24;;;;;;;22.77;20.48;;;21.70;96.40;;;;;;5035150;28;20025;-88
2021/06/29 01:04:50;;;;;;;22.02;19.73;;;21.70;96.40;;;;;;5035050;28;20156;-88
2021/06/29 01:07:16;;;;;;;23.02;20.73;;;21.70;96.70;;;;;;5018548;28;20021;-88
2021/06/29 01:09:43;;;;;;;23.17;20.65;;;21.70;96.50;;;;;;5035352;28;20089;-87
2021/06/29 01:12:10;;;;;;;21.20;19.08;;;21.60;96.50;;;;;;5043675;28;20483;-87
2021/06/29 01:14:36;;;;;;;22.52;20.13;;;21.70;96.50;;;;;;5038283;28;20427;-88
2021/06/29 01:17:05;;;;;;;24.65;21.17;;;21.70;96.60;;;;;;5028656;28;20500;-87
2021/06/29 01:19:39;;;;;;;23.38;20.83;;;21.70;96.60;;;;;;5058311;28;20365;-88
2021/06/29 01:22:09;;;;;;;22.50;20.20;;;21.60;96.60;;;;;;5042517;28;20024;-88
2021/06/29 01:24:35;;;;;;;22.03;19.73;;;21.60;96.60;;;;;;5041586;28;20032;-88
2021/06/29 01:29:47;;;;;;;23.05;20.35;;;21.60;96.60;;;;;;5064787;28;20031;-89
2021/06/29 01:32:16;;;;;;;20.52;18.35;;;21.60;96.60;;;;;;5023772;28;20025;-87
2021/06/29 01:34:41;;;;;;;23.75;20.10;;;21.60;96.60;;;;;;5021945;28;20036;-88
2021/06/29 01:37:08;;;;;;;21.90;19.48;;;21.60;96.60;;;;;;5021394;28;20025;-88
2021/06/29 01:39:34;;;;;;;22.88;20.58;;;21.60;96.70;;;;;;5021171;28;20123;-87
2021/06/29 01:41:59;;;;;;;21.70;19.30;;;21.50;96.60;;;;;;5023339;28;20079;-88
2021/06/29 01:44:44;;;;;;;23.45;19.95;;;21.50;96.60;;;;;;5046380;28;20099;-88
2021/06/29 01:47:12;;;;;;;20.58;18.48;;;21.50;96.70;;;;;;5024273;28;20029;-87
2021/06/29 01:49:38;;;;;;;21.85;19.30;;;21.50;96.70;;;;;;5021368;28;20028;-87
2021/06/29 01:52:04;;;;;;;20.83;18.63;;;21.50;96.80;;;;;;5020773;28;20025;-87
2021/06/29 01:54:30;;;;;;;21.88;19.35;;;21.50;96.80;;;;;;5020705;28;20116;-87
2021/06/29 01:56:56;;;;;;;20.67;18.15;;;21.50;96.80;;;;;;5004766;28;20506;-87
2021/06/29 01:59:22;;;;;;;19.92;17.95;;;21.40;96.80;;;;;;5021100;28;20105;-87
2021/06/29 02:01:48;;;;;;;21.25;18.98;;;21.50;96.90;;;;;;5021597;28;20111;-87
2021/06/29 02:04:14;;;;;;;19.75;17.65;;;21.40;96.90;;;;;;5021592;28;20506;-87
2021/06/29 02:06:41;;;;;;;21.65;18.30;;;21.40;96.90;;;;;;5037801;28;20025;-87
2021/06/29 02:09:11;;;;;;;21.20;16.88;;;21.40;96.90;;;;;;5021039;28;20032;-88
2021/06/29 02:11:39;;;;;;;18.92;15.75;;;21.40;97.00;;;;;;5020488;28;20025;-87
2021/06/29 02:14:06;;;;;;;20.83;16.63;;;21.40;97.00;;;;;;5036903;28;20470;-88
2021/06/29 02:16:32;;;;;;;18.50;15.98;;;21.40;97.10;;;;;;5020325;28;20454;-87
2021/06/29 02:18:57;;;;;;;17.23;15.25;;;21.40;97.20;;;;;;5020235;28;20052;-87
2021/06/29 02:21:24;;;;;;;17.92;15.70;;;21.40;97.20;;;;;;5020083;28;20065;-87
2021/06/29 02:23:49;;;;;;;18.55;14.75;;;21.40;97.20;;;;;;5036506;28;20024;-86
2021/06/29 02:26:15;;;;;;;18.88;15.63;;;21.40;97.30;;;;;;5036526;28;20083;-86
2021/06/29 02:28:41;;;;;;;19.40;15.45;;;21.40;97.30;;;;;;5036480;28;20032;-86
2021/06/29 02:31:07;;;;;;;19.98;15.13;;;21.40;97.30;;;;;;5019805;28;20053;-87
2021/06/29 02:33:32;;;;;;;17.15;15.13;;;21.40;97.30;;;;;;5020013;28;20036;-87
2021/06/29 02:35:58;;;;;;;17.77;14.90;;;21.40;97.30;;;;;;5019832;28;20037;-87
2021/06/29 02:38:26;;;;;;;16.90;14.45;;;21.40;97.40;;;;;;5019591;28;20025;-87
2021/06/29 02:40:52;;;;;;;17.75;14.68;;;21.40;97.40;;;;;;5019953;28;20108;-87
2021/06/29 02:43:18;;;;;;;20.30;16.02;;;21.40;97.40;;;;;;5018802;28;20021;-86
2021/06/29 02:45:45;;;;;;;19.02;15.27;;;21.40;97.50;;;;;;5019650;28;20032;-87
2021/06/29 02:48:11;;;;;;;17.65;15.57;;;21.40;97.50;;;;;;5036116;28;20024;-87
2021/06/29 02:50:37;;;;;;;17.10;15.15;;;21.40;97.50;;;;;;5036041;28;20025;-87
2021/06/29 02:53:03;;;;;;;16.65;14.75;;;21.40;97.50;;;;;;5003214;28;20057;-86
2021/06/29 02:55:29;;;;;;;16.17;14.48;;;21.40;97.50;;;;;;5019832;28;20037;-87
2021/06/29 02:57:55;;;;;;;18.55;15.75;;;21.40;97.50;;;;;;5045158;22;20028;-88
2021/06/29 03:00:21;;;;;;;17.85;15.15;;;21.40;97.50;;;;;;5031095;28;20127;-89
2021/06/29 03:02:47;;;;;;;16.58;14.65;;;21.40;97.50;;;;;;5018812;28;20036;-88
2021/06/29 03:05:14;;;;;;;17.08;14.93;;;21.40;97.50;;;;;;5019499;28;20411;-89
2021/06/29 03:07:41;;;;;;;18.00;15.63;;;21.30;97.50;;;;;;5022813;28;20028;-89
2021/06/29 03:10:07;;;;;;;17.02;15.23;;;21.30;97.50;;;;;;5036652;28;20045;-89
2021/06/29 03:12:34;;;;;;;18.50;15.27;;;21.30;97.50;;;;;;5055777;28;20040;-87
2021/06/29 03:15:01;;;;;;;16.75;15.02;;;21.30;97.50;;;;;;5024650;28;20017;-89
2021/06/29 03:17:28;;;;;;;18.13;15.38;;;21.30;97.60;;;;;;5015892;28;20025;-89
2021/06/29 03:19:54;;;;;;;16.83;15.02;;;21.30;97.60;;;;;;5000377;28;20356;-89
2021/06/29 03:22:20;;;;;;;16.52;14.35;;;21.30;97.60;;;;;;4993036;28;20037;-89
2021/06/29 03:24:46;;;;;;;16.25;14.18;;;21.30;97.70;;;;;;5037757;28;20017;-89
2021/06/29 03:27:12;;;;;;;15.82;14.13;;;21.30;97.60;;;;;;5010396;28;20026;-89
2021/06/29 03:29:38;;;;;;;14.60;13.10;;;21.30;97.70;;;;;;5027287;28;20561;-88
2021/06/29 03:32:04;;;;;;;15.43;13.57;;;21.30;97.70;;;;;;5002491;28;20029;-88
2021/06/29 03:34:30;;;;;;;14.43;13.02;;;21.30;97.70;;;;;;5018766;28;20387;-89
2021/06/29 03:36:56;;;;;;;15.20;13.68;;;21.30;97.90;;;;;;5036761;28;20079;-89
2021/06/29 03:39:21;;;;;;;16.38;14.68;;;21.30;97.90;;;;;;5045136;28;20033;-88
2021/06/29 03:41:47;;;;;;;15.80;14.20;;;21.20;97.80;;;;;;5052086;28;20024;-89
2021/06/29 03:44:13;;;;;;;16.63;14.93;;;21.30;97.90;;;;;;5026748;28;20044;-89
2021/06/29 03:46:39;;;;;;;16.77;14.73;;;21.30;97.90;;;;;;5038716;28;20070;-89
2021/06/29 03:49:04;;;;;;;17.42;15.60;;;21.30;97.90;;;;;;5040134;28;20074;-88
2021/06/29 03:51:30;;;;;;;16.08;14.38;;;21.30;97.90;;;;;;5038582;28;20025;-89
2021/06/29 03:53:56;;;;;;;16.05;14.32;;;21.20;97.90;;;;;;5041434;28;20053;-89
2021/06/29 03:56:29;;;;;;;15.90;14.20;;;21.20;97.90;;;;;;5019605;28;20037;-89
2021/06/29 03:58:57;;;;;;;16.13;14.30;;;21.20;97.90;;;;;;5019844;28;20060;-89
2021/06/29 04:01:23;;;;;;;17.00;14.82;;;21.20;97.90;;;;;;5047721;28;20031;-89
2021/06/29 04:03:54;;;;;;;16.27;14.57;;;21.20;98.00;;;;;;5027226;28;20035;-89
2021/06/29 04:06:20;;;;;;;15.43;13.82;;;21.20;98.00;;;;;;5023041;28;20470;-88
2021/06/29 04:08:46;;;;;;;16.58;14.88;;;21.20;98.00;;;;;;5009399;28;20021;-90
2021/06/29 04:11:13;;;;;;;16.30;14.60;;;21.20;98.00;;;;;;5025480;28;20028;-90
2021/06/29 04:13:38;;;;;;;16.70;15.00;;;21.20;98.00;;;;;;5030981;28;20060;-89
2021/06/29 04:16:04;;;;;;;15.50;13.90;;;21.20;98.00;;;;;;5024403;28;20029;-89
2021/06/29 04:18:30;;;;;;;16.13;14.52;;;21.20;98.00;;;;;;5024283;28;20402;-90
2021/06/29 04:20:56;;;;;;;15.82;14.30;;;21.20;98.10;;;;;;5021429;28;20082;-89
2021/06/29 04:23:21;;;;;;;16.75;15.05;;;21.20;98.10;;;;;;5017456;28;20127;-89
2021/06/29 04:25:47;;;;;;;16.15;14.55;;;21.20;98.10;;;;;;5028398;28;20466;-89
2021/06/29 04:28:12;;;;;;;16.75;15.05;;;21.20;98.10;;;;;;5002238;28;20244;-89
2021/06/29 04:30:38;;;;;;;15.55;13.98;;;21.20;98.10;;;;;;4997400;28;20024;-89
2021/06/29 04:33:04;;;;;;;16.67;14.98;;;21.20;98.10;;;;;;5039534;28;20075;-89
2021/06/29 04:35:29;;;;;;;16.92;15.13;;;21.20;98.10;;;;;;5041883;28;20070;-89
2021/06/29 04:37:55;;;;;;;16.15;14.48;;;21.20;98.20;;;;;;5025999;28;20060;-89
2021/06/29 04:40:21;;;;;;;18.15;15.52;;;21.20;98.20;;;;;;5024228;28;20057;-89
2021/06/29 04:42:47;;;;;;;17.17;15.38;;;21.20;98.20;;;;;;5051017;28;20479;-89
2021/06/29 04:45:13;;;;;;;16.10;14.43;;;21.20;98.20;;;;;;5024164;28;20052;-89
2021/06/29 04:47:45;;;;;;;17.42;15.00;;;21.10;98.20;;;;;;5034416;28;20028;-89
2021/06/29 04:50:12;;;;;;;17.02;15.23;;;21.10;98.20;;;;;;5031799;28;20021;-89
2021/06/29 04:52:38;;;;;;;16.48;14.15;;;21.10;98.20;;;;;;5038357;28;20029;-89
2021/06/29 04:55:04;;;;;;;17.92;15.70;;;21.10;98.20;;;;;;5021811;28;20099;-89
2021/06/29 04:57:30;;;;;;;17.60;15.73;;;21.10;98.20;;;;;;5001778;28;20364;-89
2021/06/29 04:59:55;;;;;;;16.80;15.00;;;21.10;98.30;;;;;;5004874;28;20095;-89
2021/06/29 05:02:21;;;;;;;17.15;15.35;;;21.10;98.60;;;;;;5021377;28;20033;-89
2021/06/29 05:04:46;;;;;;;17.65;15.40;;;21.10;98.40;;;;;;5021576;28;20025;-88
2021/06/29 05:07:12;;;;;;;18.88;16.25;;;21.00;98.40;;;;;;5037217;28;20109;-89
2021/06/29 05:09:38;;;;;;;18.10;16.02;;;21.10;98.40;;;;;;5033837;28;20090;-89
2021/06/29 05:12:04;;;;;;;17.17;15.45;;;21.10;98.50;;;;;;5018666;28;20033;-89
2021/06/29 05:14:30;;;;;;;16.40;14.68;;;21.10;98.50;;;;;;5045996;28;20074;-88
2021/06/29 05:16:55;;;;;;;18.15;15.27;;;21.10;98.50;;;;;;5051990;28;20088;-89
2021/06/29 05:19:21;;;;;;;18.38;15.90;;;21.00;98.50;;;;;;5004767;28;20075;-89
2021/06/29 05:21:46;;;;;;;19.83;15.93;;;21.00;98.50;;;;;;5022135;28;20063;-89
2021/06/29 05:24:12;;;;;;;16.52;14.65;;;21.10;98.60;;;;;;5050633;28;20032;-89
2021/06/29 05:26:38;;;;;;;16.77;15.07;;;21.10;98.80;;;;;;5004849;28;20025;-89
2021/06/29 05:29:05;;;;;;;17.55;14.63;;;21.10;98.60;;;;;;5031569;28;20056;-88
2021/06/29 05:31:31;;;;;;;17.77;15.57;;;21.10;98.50;;;;;;5028375;28;20021;-89
2021/06/29 05:33:57;;;;;;;19.17;16.25;;;21.10;98.60;;;;;;5004628;28;20390;-89
2021/06/29 05:36:22;;;;;;;20.15;16.38;;;21.00;98.60;;;;;;5029864;28;20035;-89
2021/06/29 05:38:48;;;;;;;20.33;17.05;;;21.10;98.60;;;;;;5074971;28;20032;-89
2021/06/29 05:41:14;;;;;;;21.25;17.75;;;21.10;98.60;;;;;;5011653;28;20028;-89
2021/06/29 05:43:39;;;;;;;19.77;16.88;;;21.00;98.50;;;;;;5008724;28;20069;-89
2021/06/29 05:46:05;;;;;;;19.67;16.58;;;21.00;98.50;;;;;;5007456;28;20026;-89
2021/06/29 05:48:33;;;;;;;18.80;16.15;;;20.90;98.50;;;;;;5006301;28;20021;-90
2021/06/29 05:50:59;;;;;;;19.15;15.90;;;20.90;98.60;;;;;;5028492;28;20025;-90
2021/06/29 05:53:25;;;;;;;20.00;16.25;;;20.90;98.70;;;;;;5028538;28;20027;-90
2021/06/29 05:55:50;;;;;;;18.02;16.02;;;20.90;98.70;;;;;;5026481;28;20037;-90
2021/06/29 05:58:16;;;;;;;20.08;15.98;;;20.80;98.70;;;;;;5029039;28;20040;-90
2021/06/29 06:00:43;;;;;;;19.17;15.75;;;20.80;98.80;;;;;;5049057;28;20065;-90
2021/06/29 06:03:08;;;;;;;19.67;16.27;;;20.80;98.80;;;;;;5042761;28;20021;-90
2021/06/29 06:05:34;;;;;;;18.63;15.32;;;20.80;98.90;;;;;;5027166;28;20379;-90
2021/06/29 06:08:00;;;;;;;19.05;16.67;;;20.80;98.90;;;;;;5046250;28;20459;-90
2021/06/29 06:10:26;;;;;;;18.08;16.05;;;20.90;99.00;;;;;;5018542;28;20083;-90
2021/06/29 06:12:51;;;;;;;19.35;16.02;;;20.90;99.00;;;;;;5032239;28;20100;-90
2021/06/29 06:15:17;;;;;;;20.23;16.65;;;20.90;99.00;;;;;;5007863;28;20025;-90
2021/06/29 06:17:43;;;;;;;24.38;20.52;;;20.90;99.00;;;;;;5016331;28;20059;-90
2021/06/29 06:20:09;;;;;;;24.65;19.10;;;20.90;99.00;;;;;;5023989;28;20055;-90
2021/06/29 06:22:35;;;;;;;23.65;19.77;;;20.90;99.00;;;;;;5044687;28;20057;-90
2021/06/29 06:25:00;;;;;;;26.48;21.83;;;20.90;99.00;;;;;;5020495;28;20425;-90
2021/06/29 06:27:26;;;;;;;27.13;21.77;;;21.00;99.00;;;;;;5012444;28;20033;-91
2021/06/29 06:29:52;;;;;;;24.45;20.60;;;20.90;99.00;;;;;;5013049;28;20048;-90
2021/06/29 06:32:18;;;;;;;24.75;20.48;;;20.90;99.00;;;;;;5016974;28;20029;-90
2021/06/29 06:34:43;;;;;;;28.00;21.90;;;20.90;99.10;;;;;;5032952;28;20037;-90
2021/06/29 06:37:09;;;;;;;26.52;21.73;;;20.90;99.10;;;;;;5003460;28;20051;-91
2021/06/29 06:39:35;;;;;;;25.38;21.23;;;20.90;99.10;;;;;;5017176;28;20040;-90
2021/06/29 06:42:00;;;;;;;26.85;20.88;;;20.90;99.10;;;;;;5021379;28;20032;-90
2021/06/29 06:44:26;;;;;;;26.92;21.38;;;20.90;99.10;;;;;;5023723;28;20549;-90
2021/06/29 06:46:52;;;;;;;25.75;20.85;;;20.90;99.10;;;;;;5035721;28;20484;-91
2021/06/29 06:49:18;;;;;;;26.35;21.27;;;20.90;99.10;;;;;;5019587;28;20505;-90
2021/06/29 06:51:43;;;;;;;25.17;21.38;;;20.90;99.10;;;;;;5004749;28;20072;-90
2021/06/29 06:54:09;;;;;;;25.38;21.05;;;20.90;99.10;;;;;;5019007;28;20056;-90
2021/06/29 06:56:34;;;;;;;26.10;21.55;;;20.90;99.10;;;;;;5018687;28;20075;-91
2021/06/29 06:59:00;;;;;;;28.27;22.65;;;20.90;99.10;;;;;;5012383;28;20192;-90
2021/06/29 07:01:26;;;;;;;27.17;23.00;;;20.90;99.10;;;;;;5021132;28;20039;-91
2021/06/29 07:03:51;;;;;;;24.98;21.73;;;20.90;99.00;;;;;;5025595;28;20498;-90
2021/06/29 07:06:17;;;;;;;26.65;23.30;;;20.90;99.00;;;;;;5008019;28;20028;-91
2021/06/29 07:08:43;;;;;;;24.80;22.20;;;20.90;99.00;;;;;;5022490;28;20436;-90
2021/06/29 07:11:09;;;;;;;27.10;22.90;;;20.80;99.00;;;;;;5041843;28;20039;-91
2021/06/29 07:13:35;;;;;;;26.70;23.75;;;20.80;99.00;;;;;;5022476;28;20021;-90
2021/06/29 07:16:02;;;;;;;25.45;21.02;;;20.80;99.00;;;;;;5031671;28;20120;-90
2021/06/29 07:18:27;;;;;;;25.05;22.35;;;20.80;99.10;;;;;;5007163;28;20133;-90
2021/06/29 07:20:53;;;;;;;26.70;22.67;;;20.80;99.10;;;;;;5031113;28;20438;-90
2021/06/29 07:23:19;;;;;;;28.20;23.60;;;20.80;99.40;;;;;;5019680;28;20096;-90
2021/06/29 07:25:46;;;;;;;25.67;22.77;;;20.80;99.10;;;;;;5018297;28;20031;-90
2021/06/29 07:28:12;;;;;;;28.05;23.75;;;20.80;99.10;;;;;;5043362;28;20021;-90
2021/06/29 07:30:38;;;;;;;27.17;24.10;;;20.80;99.10;;;;;;5028766;28;20019;-89
2021/06/29 07:33:05;;;;;;;25.08;22.38;;;20.70;99.00;;;;;;5043252;28;20485;-89
2021/06/29 07:35:32;;;;;;;25.08;22.30;;;20.80;99.10;;;;;;5015222;28;20027;-90
2021/06/29 07:38:01;;;;;;;27.60;22.23;;;20.80;99.10;;;;;;5046204;28;20118;-90
2021/06/29 07:40:30;;;;;;;26.35;22.27;;;20.80;99.20;;;;;;5029442;28;20025;-90
2021/06/29 07:42:57;;;;;;;26.38;21.75;;;20.80;99.20;;;;;;5046503;28;20042;-90
2021/06/29 07:45:25;;;;;;;27.00;23.48;;;20.80;99.20;;;;;;5058043;28;20038;-90
2021/06/29 07:47:51;;;;;;;30.45;24.08;;;20.80;99.20;;;;;;5032262;28;20022;-89
2021/06/29 07:50:17;;;;;;;31.00;26.73;;;20.80;99.20;;;;;;5018159;28;20025;-90
2021/06/29 07:52:43;;;;;;;32.72;26.27;;;20.80;99.20;;;;;;5030867;28;20402;-90
2021/06/29 07:55:09;;;;;;;30.80;24.90;;;20.80;99.30;;;;;;5026928;28;20493;-89
2021/06/29 07:57:35;;;;;;;30.85;26.60;;;20.90;99.30;;;;;;5040281;28;20110;-90
2021/06/29 08:00:00;;;;;;;29.63;23.98;;;20.80;99.30;;;;;;5036143;28;20056;-90
2021/06/29 08:02:26;;;;;;;29.08;23.77;;;20.90;99.30;;;;;;4995254;28;20537;-90
2021/06/29 08:04:52;;;;;;;27.00;22.45;;;20.90;99.30;;;;;;5008370;28;20026;-91
2021/06/29 08:07:18;;;;;;;29.65;23.73;;;20.90;99.30;;;;;;5011844;28;20030;-87
2021/06/29 08:09:44;;;;;;;26.35;21.48;;;20.90;99.30;;;;;;5028820;28;20022;-87
2021/06/29 08:12:10;;;;;;;23.77;21.20;;;20.90;99.30;;;;;;4992359;28;20384;-87
2021/06/29 08:14:36;;;;;;;23.45;20.83;;;21.00;99.30;;;;;;5035691;28;20025;-87
2021/06/29 08:17:04;;;;;;;26.17;21.73;;;21.00;99.30;;;;;;5024629;28;20053;-87
2021/06/29 08:19:30;;;;;;;25.48;21.33;;;21.00;99.40;;;;;;5011158;28;20439;-86
2021/06/29 08:21:56;;;;;;;26.48;22.13;;;21.00;99.30;;;;;;5004968;28;20036;-87
2021/06/29 08:24:22;;;;;;;26.45;22.17;;;21.00;99.30;;;;;;5001576;28;20092;-87
2021/06/29 08:26:48;;;;;;;27.00;22.55;;;21.00;99.30;;;;;;5040616;28;20032;-87
2021/06/29 08:29:14;;;;;;;29.45;23.05;;;21.00;99.20;;;;;;5025500;28;20040;-87
2021/06/29 08:31:40;;;;;;;27.23;22.38;;;21.00;99.10;;;;;;4992228;28;20029;-87
2021/06/29 08:34:06;;;;;;;30.90;25.17;;;21.00;99.10;;;;;;5003688;28;20036;-87
2021/06/29 08:36:32;;;;;;;29.02;24.23;;;21.00;99.00;;;;;;5018466;28;20029;-87
2021/06/29 08:38:58;;;;;;;27.67;22.70;;;21.00;99.00;;;;;;5021802;28;20030;-87
2021/06/29 08:41:24;;;;;;;29.75;23.85;;;21.00;99.00;;;;;;5012701;28;20105;-88
2021/06/29 08:43:51;;;;;;;30.98;24.35;;;21.00;99.00;;;;;;5019200;28;20017;-87
2021/06/29 08:46:17;;;;;;;34.25;24.95;;;20.90;99.00;;;;;;5046406;28;20026;-87
2021/06/29 08:48:42;;;;;;;32.05;24.90;;;20.90;99.00;;;;;;5033807;28;20514;-86
2021/06/29 08:51:09;;;;;;;31.42;25.83;;;20.90;99.10;;;;;;5017512;28;20037;-85
2021/06/29 08:53:36;;;;;;;32.95;24.52;;;20.90;99.10;;;;;;5015598;28;20051;-86
2021/06/29 08:56:05;;;;;;;31.10;25.30;;;20.90;99.10;;;;;;4998128;28;20380;-89
2021/06/29 08:58:34;;;;;;;33.42;25.40;;;20.90;99.20;;;;;;5033249;23;20041;-91
2021/06/29 09:01:01;;;;;;;30.55;24.27;;;20.90;99.20;;;;;;5039916;28;20094;-91
2021/06/29 09:03:28;;;;;;;34.13;25.60;;;20.90;99.30;;;;;;5007357;28;20029;-91
2021/06/29 09:05:54;;;;;;;35.95;27.83;;;20.90;99.30;;;;;;5038135;28;20029;-91
2021/06/29 09:08:21;;;;;;;36.20;27.60;;;20.90;99.40;;;;;;5039315;28;20043;-91
2021/06/29 09:11:20;;;;;;;36.63;28.30;;;21.00;99.60;;;;;;5021361;28;20068;-90
2021/06/29 09:14:06;;;;;;;37.38;28.13;;;21.00;99.60;;;;;;5057163;28;20029;-90
2021/06/29 09:16:32;;;;;;;37.00;28.50;;;21.00;99.70;;;;;;5035533;28;20025;-90
2021/06/29 09:18:57;;;;;;;39.38;29.88;;;21.00;99.70;;;;;;5038713;28;20032;-90
2021/06/29 09:21:24;;;;;;;41.35;28.38;;;21.00;99.70;;;;;;5005951;28;20123;-91
2021/06/29 09:23:51;;;;;;;37.47;28.88;;;21.10;99.80;;;;;;5018590;28;20105;-90
2021/06/29 09:26:21;;;;;;;37.55;28.35;;;21.10;99.90;;;;;;5028176;28;20071;-91
2021/06/29 09:28:52;;;;;;;41.00;30.38;;;21.10;99.90;;;;;;5034410;28;20109;-90
2021/06/29 09:31:19;;;;;;;40.33;30.85;;;21.20;99.90;;;;;;5028145;28;20017;-89
2021/06/29 09:33:50;;;;;;;37.88;28.85;;;21.20;99.90;;;;;;5045649;28;20482;-89
2021/06/29 09:36:17;;;;;;;;;;;21.20;99.90;;;;;;5043242;28;20032;-90
2021/06/29 09:38:45;;;;;;;39.97;28.77;;;21.30;99.90;;;;;;5056331;28;19923;-90
2021/06/29 09:41:16;;;;;;;43.20;32.30;;;21.30;99.90;;;;;;5052276;28;20020;-90
2021/06/29 09:43:43;;;;;;;40.45;31.70;;;21.30;99.90;;;;;;5037225;28;20017;-90
2021/06/29 09:46:12;;;;;;;37.35;30.27;;;21.30;99.90;;;;;;5036719;28;20072;-91
2021/06/29 09:48:42;;;;;;;40.70;32.50;;;21.30;99.90;;;;;;5020441;28;20527;-92
2021/06/29 09:51:32;;;;;;;42.88;33.35;;;21.30;99.90;;;;;;5054129;28;20381;-91
2021/06/29 09:54:06;;;;;;;38.83;30.95;;;21.30;99.80;;;;;;5043810;28;20047;-91
2021/06/29 09:56:38;;;;;;;36.72;30.60;;;21.30;99.80;;;;;;5036629;28;20035;-90
2021/06/29 09:59:11;;;;;;;33.17;27.48;;;21.30;99.90;;;;;;5036661;28;20534;-91
2021/06/29 10:01:36;;;;;;;32.30;27.77;;;21.30;99.90;;;;;;5042899;28;20033;-90
2021/06/29 10:04:04;;;;;;;34.65;26.58;;;21.30;99.90;;;;;;5057126;28;20032;-91
2021/06/29 10:06:33;;;;;;;33.08;26.88;;;21.30;99.90;;;;;;5044384;28;20017;-89
2021/06/29 10:09:08;;;;;;;31.80;25.83;;;21.30;99.90;;;;;;5036431;28;20021;-90
2021/06/29 10:11:53;;;;;;;37.70;26.17;;;21.40;99.90;;;;;;5032741;28;20017;-91
2021/06/29 10:14:24;;;;;;;30.45;25.90;;;21.40;99.90;;;;;;5017694;28;20091;-90
2021/06/29 10:16:52;;;;;;;31.73;26.08;;;21.50;99.90;;;;;;5004271;28;20039;-90
2021/06/29 10:22:00;;;;;;;36.00;28.50;;;21.50;99.90;;;;;;5062547;28;20031;-90
2021/06/29 10:24:30;;;;;;;33.30;27.42;;;21.50;99.90;;;;;;5038337;28;20028;-90
2021/06/29 10:26:58;;;;;;;35.10;28.52;;;21.50;99.80;;;;;;5040377;28;20040;-90
2021/06/29 10:29:25;;;;;;;34.88;28.98;;;21.60;99.90;;;;;;5020450;28;20132;-89
2021/06/29 10:32:07;;;;;;;34.90;29.25;;;21.60;99.80;;;;;;5038510;28;20025;-91
2021/06/29 10:34:34;;;;;;;36.78;28.80;;;21.60;99.70;;;;;;5028527;28;20033;-90
2021/06/29 10:36:59;;;;;;;34.00;27.40;;;21.60;99.80;;;;;;5019821;28;20033;-90
2021/06/29 10:39:31;;;;;;;35.70;29.30;;;21.60;99.80;;;;;;5025933;28;20037;-90
2021/06/29 10:42:03;;;;;;;42.20;34.60;;;21.60;99.70;;;;;;5046015;28;20028;-90
2021/06/29 10:44:54;;;;;;;45.65;33.28;;;21.60;99.60;;;;;;5040395;28;20056;-90
2021/06/29 10:47:26;;;;;;;45.78;35.47;;;21.70;99.60;;;;;;5036891;28;20029;-90
2021/06/29 10:49:53;;;;;;;52.83;35.55;;;21.70;99.50;;;;;;5028807;28;20028;-90
2021/06/29 10:52:31;;;;;;;44.95;34.00;;;21.70;99.50;;;;;;5057860;28;20012;-91
2021/06/29 10:54:59;;;;;;;41.67;31.60;;;21.80;99.50;;;;;;5021820;28;20124;-91
2021/06/29 10:57:39;;;;;;;37.22;29.63;;;21.80;99.60;;;;;;5044808;28;20029;-90
2021/06/29 11:00:22;;;;;;;35.83;28.50;;;21.90;99.60;;;;;;5035819;28;20048;-90
2021/06/29 11:03:11;;;;;;;33.83;27.73;;;22.00;99.70;;;;;;5032504;28;20025;-90
2021/06/29 11:05:42;;;;;;;29.75;25.25;;;22.00;99.60;;;;;;5025020;28;20029;-90
2021/06/29 11:08:09;;;;;;;;;;;22.10;99.60;;;;;;5038305;28;20017;-90
2021/06/29 11:10:37;;;;;;;24.83;21.85;;;22.10;99.40;;;;;;5037393;28;19910;-90
2021/06/29 11:13:04;;;;;;;24.63;22.08;;;22.10;99.50;;;;;;5030449;28;20020;-90
2021/06/29 11:15:52;;;;;;;25.80;23.05;;;22.20;99.60;;;;;;4992639;28;20029;-90
2021/06/29 11:18:40;;;;;;;25.73;22.85;;;22.20;99.60;;;;;;5024698;28;20419;-90
2021/06/29 11:21:09;;;;;;;27.77;24.42;;;22.30;99.50;;;;;;5004071;28;20466;-90
2021/06/29 11:23:36;;;;;;;24.85;22.33;;;22.30;99.40;;;;;;5033593;28;21426;-90
2021/06/29 11:26:14;;;;;;;22.65;20.27;;;22.30;99.40;;;;;;5037128;28;20017;-91
2021/06/29 11:28:43;;;;;;;23.45;21.05;;;22.40;99.50;;;;;;5033520;28;20029;-90
2021/06/29 11:31:30;;;;;;;22.90;20.63;;;22.40;99.50;;;;;;5042314;28;20404;-91
2021/06/29 11:34:03;;;;;;;21.17;19.00;;;22.60;99.50;;;;;;5036210;28;20097;-89
2021/06/29 11:36:29;;;;;;;20.88;18.80;;;22.60;99.50;;;;;;5036713;28;20030;-89
2021/06/29 11:39:23;;;;;;;20.90;18.80;;;22.60;99.40;;;;;;5038545;28;20561;-89
2021/06/29 11:41:55;;;;;;;19.05;17.10;;;22.70;99.30;;;;;;5029361;28;20047;-89
2021/06/29 11:44:21;;;;;;;18.67;16.70;;;22.70;99.30;;;;;;5039930;28;20029;-90
2021/06/29 11:46:59;;;;;;;16.67;14.93;;;22.80;99.40;;;;;;5061514;28;20099;-90
2021/06/29 11:49:36;;;;;;;16.67;15.07;;;22.90;99.40;;;;;;5046835;28;20017;-89
2021/06/29 11:52:14;;;;;;;19.17;17.20;;;23.00;99.30;;;;;;5041659;28;20017;-91
2021/06/29 11:54:52;;;;;;;17.30;15.60;;;23.00;99.00;;;;;;5021791;28;20026;-91
2021/06/29 11:57:23;;;;;;;16.35;14.75;;;23.10;98.90;;;;;;5047956;28;20036;-92
2021/06/29 11:59:58;;;;;;;15.02;13.63;;;23.20;98.90;;;;;;5043520;28;20116;-90
2021/06/29 12:02:37;;;;;;;15.25;13.65;;;23.20;98.80;;;;;;5043768;28;20075;-90
2021/06/29 12:05:10;;;;;;;16.85;15.05;;;23.30;98.70;;;;;;5090086;22;20090;-91
2021/06/29 12:07:39;;;;;;;14.82;13.35;;;23.30;98.70;;;;;;5075684;28;20031;-91
2021/06/29 12:10:14;;;;;;;17.33;14.27;;;23.40;98.60;;;;;;5081765;28;20020;-91
2021/06/29 12:12:43;;;;;;;15.77;14.18;;;23.50;98.40;;;;;;5084173;28;20253;-91
2021/06/29 12:15:19;;;;;;;15.15;13.65;;;23.50;98.10;;;;;;5091123;28;20424;-93
2021/06/29 12:18:05;;;;;;;13.63;12.23;;;23.50;97.90;;;;;;5082894;28;20040;-94
2021/06/29 12:20:51;;;;;;;13.15;11.82;;;23.60;97.40;;;;;;5081401;28;20036;-95
2021/06/29 12:23:20;;;;;;;12.27;11.00;;;23.60;97.20;;;;;;5075379;28;20074;-93
2021/06/29 12:25:54;;;;;;;14.10;10.48;;;23.60;97.30;;;;;;5071467;28;20060;-93
2021/06/29 12:28:25;;;;;;;12.52;11.05;;;23.70;97.30;;;;;;5078552;28;20093;-91
2021/06/29 12:30:54;;;;;;;11.95;10.77;;;23.70;97.10;;;;;;5075592;28;20033;-95
2021/06/29 12:33:28;;;;;;;11.48;10.35;;;23.70;96.90;;;;;;5078903;28;20294;-95
2021/06/29 12:35:59;;;;;;;11.10;9.90;;;23.80;96.90;;;;;;5079552;28;20366;-93
2021/06/29 12:38:27;;;;;;;9.43;8.50;;;23.80;96.90;;;;;;5059815;28;20024;-96
2021/06/29 12:41:01;;;;;;;9.93;8.93;;;23.90;96.90;;;;;;5096357;28;20016;-95
2021/06/29 12:43:41;;;;;;;11.00;9.90;;;23.90;96.90;;;;;;5083904;28;20036;-95